Winthrop, MN (55396)

12:09 PM CDT on August 28, 2015 (GMT -0500)
Severance Lake | | Change Station
CLOSE
Current Station
Personal Weather Station
Location: Glencoe, MN
Elevation: 997 ft
Nearby Weather Stations

Elev 997 ft 44.68 °N, 94.13 °W | Updated 7 minutes ago

Partly Cloudy
Partly Cloudy
75.1 °F
Feels Like 76 °F
N
12.0
Wind Variable Wind from SSE
Gusts 17.0 mph

Today
High -- | Low -- °F
--% Chance of Precip.
Yesterday
High -- | Low -- °F
Precip. -- in
6:35 AM 8:01 PM
Waxing Gibbous, 98% visible
Pressure 29.99 in
Visibility 10.0 miles
Clouds Scattered Clouds 2400 ft
Heat Index 76 °F
Dew Point 66 °F
Humidity 73%
Rainfall 0.02 in
Snow Depth Not available.
UV 6 out of 12
Pollen 1.00 out of 12
Air Quality Not available.
Flu Activity Not available.
METAR KULM 281654Z AUTO 14012G17KT 10SM SCT024 22/17 A2999 RMK AO2 LTG DSNT S
Pressure 29.99 in
Visibility 10.0 miles
Clouds Scattered Clouds 2400 ft
Heat Index 76 °F
Dew Point 66 °F
Humidity 73%
Rainfall 0.02 in
Snow Depth Not available.
UV 6 out of 12
Pollen 1.00 out of 12
Air Quality Not available.
Flu Activity Not available.
METAR KULM 281654Z AUTO 14012G17KT 10SM SCT024 22/17 A2999 RMK AO2 LTG DSNT S

10-Day Weather Forecast

×

Almanac

Astronomy

Aug. 28, 2015 Rise Set
Actual Time
Civil Twilight
Nautical Twilight
Astronomical Twilight
Moon
Length of Visible Light
Length of Day
Tomorrow will be .
, % of the Moon is Illuminated

Today's Extremes

State Highs State Lows

Community

WunderPhotos

Upload Photos

1,850,427 photos uploaded!

WunderBlogs® & News

Nearby

Air Quality

  Air Quality AQ Index Pollutant
Not available.

Snow Depth

Station Depth Elevation

Earthquake Activity

City Distance Mag. Time & Date
Minimum magnitude displayed is 2.5.

Coastal Water Temperatures

Place Temperature

Stations

Nearby Weather Stations

Station Location Temp. Windchill Dew Point Humidity Wind Precip. Elev Updated Type